• Join FlightAware (Why Join?)
  • Login
  • US Flag 
08:35PM EST


 

Airport Tracker/Info


-or-


 

Live Flight TrackerFlight Track Log ✈ EJA829P ✈ 14-Nov-2013 ✈ KBHM - KSAV

Flight Track Log - Related Links

Times and Time Zones

All times are in EST time to prevent confusion due to time zone crossing. See the EJA829P flight status page for this flight to view local times or setup timezone preferences in your user account.

Time Position Orientation Groundspeed Altitude Reporting Facility
EST Latitude Longitude Course Direction KTS MPH feet Rate Location/Type
01:09PM 33.5703 -86.7464 112° Southeast 193 222 1,500  Level Atlanta Center
01:10PM 33.5792 -86.7317 54° Northeast 196 226 2,800 3,420 Climbing Atlanta Center
01:11PM 33.5819 -86.5972 89° East 247 284 8,600 3,300 Climbing Atlanta Center
01:12PM 33.5503 -86.5064 113° Southeast 262 302 12,000 3,000 Climbing Atlanta Center
01:13PM 33.5147 -86.4058 113° Southeast 298 343 14,600 2,700 Climbing Atlanta Center
01:14PM 33.4769 -86.3100 115° Southeast 311 358 17,500 2,640 Climbing Atlanta Center
01:15PM 33.3882 -86.0083 112° Southeast  Level Estimated
01:15PM 33.4392 -86.2069 114° Southeast 325 374 19,900  Level Atlanta Center
01:16PM 33.3950 -86.0964 116° Southeast 348 400 21,600 1,680 Climbing Atlanta Center
01:17PM 33.3511 -85.9761 114° Southeast 378 435 23,300 1,560 Climbing Atlanta Center
01:18PM 33.3008 -85.8506 116° Southeast 400 460 24,800 1,200 Climbing Atlanta Center
01:19PM 33.2486 -85.7181 115° Southeast 414 476 25,800 960 Climbing Atlanta Center
01:20PM 33.1961 -85.5781 114° Southeast 435 501 26,800 600 Climbing Atlanta Center
01:21PM 33.1372 -85.4281 115° Southeast 452 520 27,000 60 Climbing Atlanta Center
01:22PM 33.0783 -85.2833 116° Southeast 471 542 27,000  Level Atlanta Center
01:23PM 33.0339 -85.1292 109° East 491 565 27,000  Level Atlanta Center
01:24PM 33.0017 -84.9925 106° East 485 558 27,000  Level Atlanta Center
01:25PM 32.9650 -84.8336 105° East 480 552 27,000  Level Atlanta Center
01:26PM 32.9283 -84.6772 106° East 480 552 27,000  Level Atlanta Center
01:27PM 32.8936 -84.5236 105° East 475 547 27,000  Level Atlanta Center
01:28PM 32.8544 -84.3653 106° East 480 552 27,000  Level Atlanta Center
01:29PM 32.8214 -84.2119 104° East 480 552 27,000  Level Atlanta Center
01:30PM 32.7819 -84.0561 107° East 480 552 27,000  Level Atlanta Center
01:31PM 32.7464 -83.9006 105° East 486 559 27,000  Level Atlanta Center
01:32PM 32.7086 -83.7475 106° East 481 554 27,000  Level Atlanta Center
01:33PM 32.6789 -83.5897 103° East 481 554 27,000  Level Atlanta Center
01:34PM 32.6531 -83.4147 100° East 486 559 27,000  Level Atlanta Center
01:35PM 32.6269 -83.2522 101° East 486 559 27,000 -300 Level Atlanta Center
01:36PM 32.6031 -83.0994 100° East 491 565 26,500 -840 Descending Atlanta Center
01:37PM 32.5786 -82.9444 101° East 485 558 25,400 -1,260 Descending Atlanta Center
01:38PM 32.5522 -82.7969 102° East 478 550 24,000 -720 Descending Atlanta Center
01:39PM 32.5172 -82.6544 106° East 461 531 24,000 -900 Level Atlanta Center
01:40PM 32.4803 -82.5147 107° East 444 511 22,200 -2,100 Descending Atlanta Center
01:43PM 32.4111 -82.2281 106° East 392 451 17,200 -2,100 Descending Jacksonville Center
01:44PM 32.3856 -82.1225 106° East 372 428 15,400 -1,980 Descending Jacksonville Center
01:45PM 32.3514 -81.9975 108° East 360 414 13,300 -1,980 Descending Jacksonville Center
01:46PM 32.3233 -81.8872 107° East 360 414 11,500 -1,200 Descending Jacksonville Center
01:47PM 32.2994 -81.7964 107° East 335 386 11,000 -1,200 Descending Jacksonville Center
01:48PM 32.2758 -81.6983 106° East 294 338 9,100 -1,020 Descending Jacksonville Center
01:49PM 32.2583 -81.6275 106° East 237 273 9,000 -720 Descending Jacksonville Center
01:50PM 32.2325 -81.5614 115° Southeast 216 249 7,700 -1,800 Descending Jacksonville Center
01:51PM 32.2089 -81.5028 115° Southeast 209 241 5,500 -2,100 Descending Jacksonville Center
01:52PM 32.1833 -81.4492 119° Southeast 199 229 3,500 -1,680 Descending Jacksonville Center
01:53PM 32.1556 -81.3981 123° Southeast 194 223 2,200 -840 Descending Jacksonville Center
01:54PM 32.1300 -81.3397 117° Southeast 187 215 1,900 -540 Descending Jacksonville Center
01:55PM 32.1272 -81.2931 94° East 155 178 1,200 -720 Descending Jacksonville Center